createdAt,value
2023-03-20T00:02:19.217Z,14.98
2023-03-20T00:04:48.329Z,13.93
2023-03-20T00:07:17.012Z,13.90
2023-03-20T00:09:46.388Z,14.13
2023-03-20T00:12:22.748Z,12.95
2023-03-20T00:14:51.906Z,13.55
2023-03-20T00:17:21.350Z,12.55
2023-03-20T00:19:50.621Z,12.95
2023-03-20T00:22:19.215Z,13.75
2023-03-20T00:24:48.733Z,14.45
2023-03-20T00:27:17.321Z,14.25
2023-03-20T00:29:46.288Z,13.18
2023-03-20T00:32:15.241Z,13.20
2023-03-20T00:34:44.258Z,14.07
2023-03-20T00:37:14.875Z,13.98
2023-03-20T00:39:43.847Z,14.23
2023-03-20T00:42:25.016Z,12.35
2023-03-20T00:44:55.168Z,14.35
2023-03-20T00:47:25.979Z,13.77
2023-03-20T00:49:56.232Z,12.70
2023-03-20T00:52:25.130Z,14.43
2023-03-20T00:54:54.120Z,13.43
2023-03-20T00:57:31.585Z,13.27
2023-03-20T01:00:08.580Z,13.20
2023-03-20T01:02:37.248Z,13.25
2023-03-20T01:05:06.842Z,13.55
2023-03-20T01:07:35.340Z,12.98
2023-03-20T01:10:05.958Z,12.93
2023-03-20T01:12:34.674Z,14.25
2023-03-20T01:15:03.066Z,13.60
2023-03-20T01:17:31.679Z,14.38
2023-03-20T01:20:00.025Z,13.05
2023-03-20T01:22:28.993Z,14.95
2023-03-20T01:24:57.345Z,14.18
2023-03-20T01:27:26.177Z,13.75
2023-03-20T01:29:54.478Z,14.35
2023-03-20T01:32:23.136Z,13.73
2023-03-20T01:34:54.872Z,13.75
2023-03-20T01:37:27.457Z,13.20
2023-03-20T01:39:59.481Z,13.55
2023-03-20T01:42:29.043Z,13.95
2023-03-20T01:44:57.655Z,13.68
2023-03-20T01:47:29.099Z,13.52
2023-03-20T01:50:27.003Z,13.60
2023-03-20T01:53:16.789Z,13.00
2023-03-20T01:55:54.470Z,13.40
2023-03-20T01:58:32.631Z,14.57
2023-03-20T02:01:01.344Z,13.60
2023-03-20T02:03:30.109Z,12.90
2023-03-20T02:06:21.217Z,15.20
2023-03-20T02:09:19.666Z,13.20
2023-03-20T02:11:49.010Z,12.80
2023-03-20T02:14:21.400Z,13.15
2023-03-20T02:16:58.292Z,14.27
2023-03-20T02:20:33.612Z,13.45
2023-03-20T02:23:19.579Z,13.18
2023-03-20T02:26:24.437Z,13.50
2023-03-20T02:29:14.887Z,13.98
2023-03-20T02:32:15.843Z,13.75
2023-03-20T02:34:49.857Z,14.63
2023-03-20T02:37:55.466Z,13.90
2023-03-20T02:40:25.886Z,13.32
2023-03-20T02:43:16.034Z,14.95
2023-03-20T02:46:06.126Z,15.15
2023-03-20T02:49:08.543Z,13.45
2023-03-20T02:51:48.736Z,13.15
2023-03-20T02:54:28.795Z,14.43
2023-03-20T02:57:02.858Z,12.23
2023-03-20T02:59:57.295Z,15.25
2023-03-20T03:02:45.803Z,14.23
2023-03-20T03:05:24.542Z,13.35
2023-03-20T03:07:54.877Z,13.68
2023-03-20T03:10:31.105Z,13.15
2023-03-20T03:13:00.115Z,13.30
2023-03-20T03:15:37.955Z,13.55
2023-03-20T03:18:07.897Z,14.05
2023-03-20T03:20:38.727Z,13.40
2023-03-20T03:23:07.488Z,13.57
2023-03-20T03:25:41.076Z,14.48
2023-03-20T03:28:43.481Z,13.35
2023-03-20T03:31:16.603Z,13.27
2023-03-20T03:33:49.155Z,12.23
2023-03-20T03:36:43.275Z,14.18
2023-03-20T03:39:36.885Z,14.27
2023-03-20T03:42:18.187Z,14.32
2023-03-20T03:45:12.325Z,14.68
2023-03-20T03:47:54.700Z,14.30
2023-03-20T03:50:41.770Z,13.43
2023-03-20T03:53:11.895Z,13.13
2023-03-20T03:55:43.816Z,15.18
2023-03-20T03:58:33.388Z,14.52
2023-03-20T04:01:01.909Z,14.43
2023-03-20T04:03:34.250Z,13.45
2023-03-20T04:06:03.509Z,14.73
2023-03-20T04:08:32.180Z,13.32
2023-03-20T04:11:01.733Z,14.30
2023-03-20T04:13:31.824Z,13.73
2023-03-20T04:16:00.257Z,13.63
2023-03-20T04:18:30.912Z,14.38
2023-03-20T04:20:59.265Z,13.75
2023-03-20T04:23:28.286Z,14.80
2023-03-20T04:25:56.798Z,14.05
2023-03-20T04:28:26.040Z,13.55
2023-03-20T04:31:17.660Z,14.75
2023-03-20T04:34:25.045Z,12.63
2023-03-20T04:37:25.401Z,13.30
2023-03-20T04:40:08.372Z,12.60
2023-03-20T04:42:37.952Z,14.57
2023-03-20T04:45:09.674Z,12.73
2023-03-20T04:47:40.142Z,13.57
2023-03-20T04:50:09.890Z,14.13
2023-03-20T04:52:38.515Z,12.27
2023-03-20T04:55:08.552Z,13.82
2023-03-20T04:57:36.982Z,13.88
2023-03-20T05:00:08.286Z,14.05
2023-03-20T05:02:36.702Z,13.75
2023-03-20T05:05:05.945Z,14.18
2023-03-20T05:07:37.346Z,13.15
2023-03-20T05:10:11.980Z,14.50
2023-03-20T05:13:00.658Z,13.88
2023-03-20T05:15:39.114Z,14.27
2023-03-20T05:18:28.549Z,14.45
2023-03-20T05:21:13.496Z,14.98
2023-03-20T05:24:02.587Z,14.98
2023-03-20T05:26:57.887Z,14.10
2023-03-20T05:29:45.549Z,13.48
2023-03-20T05:32:17.416Z,15.38
2023-03-20T05:35:15.260Z,15.07
2023-03-20T05:37:49.559Z,15.20
2023-03-20T05:41:00.631Z,15.23
2023-03-20T05:43:49.995Z,13.65
2023-03-20T05:46:44.528Z,15.30
2023-03-20T05:49:39.845Z,14.35
2023-03-20T05:52:34.551Z,13.40
2023-03-20T05:55:25.796Z,13.50
2023-03-20T05:58:12.915Z,14.35
2023-03-20T06:01:01.854Z,14.52
2023-03-20T06:03:56.773Z,14.80
2023-03-20T06:07:01.001Z,13.98
2023-03-20T06:09:30.613Z,14.55
2023-03-20T06:12:00.606Z,15.35
2023-03-20T06:14:29.721Z,15.25
2023-03-20T06:17:02.741Z,15.27
2023-03-20T06:19:31.771Z,14.63
2023-03-20T06:22:00.308Z,13.70
2023-03-20T06:24:29.422Z,13.88
2023-03-20T06:26:59.158Z,13.65
2023-03-20T06:29:29.267Z,14.30
2023-03-20T06:32:12.489Z,14.18
2023-03-20T06:34:41.568Z,15.32
2023-03-20T06:37:10.258Z,15.60
2023-03-20T06:39:38.976Z,14.32
2023-03-20T06:42:16.049Z,15.13
2023-03-20T06:44:47.712Z,15.15
2023-03-20T06:47:20.945Z,14.27
2023-03-20T06:49:50.908Z,13.55
2023-03-20T06:52:21.844Z,13.85
2023-03-20T06:55:08.447Z,11.93
2023-03-20T06:57:37.343Z,12.50
2023-03-20T07:00:08.433Z,13.23
2023-03-20T07:02:37.101Z,13.50
2023-03-20T07:05:07.214Z,14.18
2023-03-20T07:07:37.366Z,13.50
2023-03-20T07:10:07.404Z,12.95
2023-03-20T07:12:36.041Z,12.98
2023-03-20T07:15:06.090Z,13.15
2023-03-20T07:17:35.961Z,14.52
2023-03-20T07:20:05.607Z,14.77
2023-03-20T07:22:34.264Z,14.43
2023-03-20T07:25:17.272Z,14.43
2023-03-20T07:27:51.173Z,14.82
2023-03-20T07:30:23.704Z,15.45
2023-03-20T07:32:53.219Z,16.75
2023-03-20T07:35:23.359Z,14.27
2023-03-20T07:37:52.660Z,15.05
2023-03-20T07:40:21.590Z,14.57
2023-03-20T07:42:56.437Z,16.02
2023-03-20T07:46:07.902Z,15.10
2023-03-20T07:48:38.752Z,13.98
2023-03-20T07:51:08.224Z,15.02
2023-03-20T07:53:37.263Z,14.90
2023-03-20T07:56:07.245Z,15.23
2023-03-20T07:58:36.426Z,15.65
2023-03-20T08:01:05.454Z,15.55
2023-03-20T08:03:34.150Z,15.32
2023-03-20T08:06:04.524Z,14.52
2023-03-20T08:08:32.956Z,14.40
2023-03-20T08:11:02.059Z,13.45
2023-03-20T08:13:30.604Z,14.93
2023-03-20T08:15:59.458Z,26.67
2023-03-20T08:18:28.195Z,26.30
2023-03-20T08:20:56.972Z,24.02
2023-03-20T08:23:25.290Z,20.65
2023-03-20T08:25:54.581Z,21.10
2023-03-20T08:28:30.832Z,21.13
2023-03-20T08:31:10.272Z,22.30
2023-03-20T08:33:39.112Z,21.95
2023-03-20T08:36:08.575Z,22.25
2023-03-20T08:38:37.181Z,21.33
2023-03-20T08:41:07.290Z,21.50
2023-03-20T08:43:36.558Z,22.10
2023-03-20T08:46:05.773Z,19.67
2023-03-20T08:48:34.398Z,21.92
2023-03-20T08:51:03.818Z,22.52
2023-03-20T08:53:32.251Z,23.02
2023-03-20T08:56:01.866Z,21.70
2023-03-20T08:58:30.869Z,20.48
2023-03-20T09:01:05.893Z,22.48
2023-03-20T09:03:34.462Z,22.70
2023-03-20T09:06:07.175Z,22.30
2023-03-20T09:08:36.276Z,21.23
2023-03-20T09:11:05.879Z,22.15
2023-03-20T09:13:34.196Z,24.50
2023-03-20T09:16:03.821Z,22.38
2023-03-20T09:18:32.243Z,23.38
2023-03-20T09:21:01.346Z,21.38
2023-03-20T09:23:29.753Z,22.08
2023-03-20T09:25:58.584Z,23.48
2023-03-20T09:28:27.486Z,22.05
2023-03-20T09:30:57.920Z,20.85
2023-03-20T09:33:26.541Z,24.15
2023-03-20T09:35:55.522Z,22.77
2023-03-20T09:38:24.728Z,24.73
2023-03-20T09:41:04.804Z,23.02
2023-03-20T09:43:48.373Z,22.38
2023-03-20T09:46:49.877Z,23.17
2023-03-20T09:49:59.537Z,22.67
2023-03-20T09:52:33.109Z,23.13
2023-03-20T09:55:24.033Z,22.77
2023-03-20T09:58:02.698Z,23.95
2023-03-20T10:00:32.616Z,27.13
2023-03-20T10:03:06.884Z,25.05
2023-03-20T10:05:46.872Z,24.23
2023-03-20T10:08:17.219Z,24.50
2023-03-20T10:11:12.156Z,24.08
2023-03-20T10:14:01.545Z,23.10
2023-03-20T10:17:06.830Z,22.27
2023-03-20T10:19:51.967Z,23.38
2023-03-20T10:22:26.417Z,21.77
2023-03-20T10:25:34.771Z,21.65
2023-03-20T10:28:11.769Z,22.58
2023-03-20T10:31:13.650Z,22.42
2023-03-20T10:34:11.839Z,21.50
2023-03-20T10:37:08.894Z,22.67
2023-03-20T10:40:17.917Z,21.45
2023-03-20T10:42:48.102Z,23.13
2023-03-20T10:45:38.756Z,21.58
2023-03-20T10:48:31.523Z,23.50
2023-03-20T10:51:02.478Z,22.08
2023-03-20T10:53:58.636Z,23.13
2023-03-20T10:56:44.691Z,23.05
2023-03-20T10:59:22.596Z,24.92
2023-03-20T11:01:51.351Z,24.83
2023-03-20T11:04:20.331Z,26.45
2023-03-20T11:07:12.821Z,24.52
2023-03-20T11:09:41.931Z,24.50
2023-03-20T11:12:20.958Z,27.50
2023-03-20T11:14:49.665Z,25.73
2023-03-20T11:17:17.960Z,26.90
2023-03-20T11:19:46.571Z,27.60
2023-03-20T11:22:26.950Z,24.40
2023-03-20T11:25:02.146Z,25.30
2023-03-20T11:27:33.560Z,24.42
2023-03-20T11:30:07.607Z,24.40
2023-03-20T11:32:40.965Z,25.27
2023-03-20T11:35:26.047Z,25.17
2023-03-20T11:37:56.648Z,23.00
2023-03-20T11:40:31.945Z,23.85
2023-03-20T11:43:10.817Z,24.52
2023-03-20T11:46:11.119Z,24.75
2023-03-20T11:48:42.121Z,24.33
2023-03-20T11:51:19.292Z,23.65
2023-03-20T11:53:48.247Z,22.95
2023-03-20T11:56:31.086Z,21.40
2023-03-20T11:59:13.717Z,21.88
2023-03-20T12:01:52.465Z,22.65
2023-03-20T12:04:42.126Z,21.80
2023-03-20T12:07:17.346Z,21.30
2023-03-20T12:09:53.076Z,21.50
2023-03-20T12:12:25.001Z,19.83
2023-03-20T12:14:59.707Z,24.35
2023-03-20T12:17:55.220Z,22.67
2023-03-20T12:20:31.066Z,20.30
2023-03-20T12:23:11.373Z,24.98
2023-03-20T12:26:00.551Z,23.35
2023-03-20T12:28:37.534Z,22.95
2023-03-20T12:31:31.667Z,22.83
2023-03-20T12:34:11.942Z,27.73
2023-03-20T12:36:47.290Z,28.58
2023-03-20T12:39:25.093Z,25.52
2023-03-20T12:42:11.275Z,26.38
2023-03-20T12:45:13.623Z,26.55
2023-03-20T12:48:03.101Z,28.65
2023-03-20T12:50:42.116Z,26.92
2023-03-20T12:53:38.708Z,30.63
2023-03-20T12:56:54.084Z,27.88
2023-03-20T12:59:49.748Z,29.63
2023-03-20T13:02:33.913Z,28.33
2023-03-20T13:05:26.940Z,30.30
2023-03-20T13:08:18.936Z,27.58
2023-03-20T13:11:17.728Z,26.75
2023-03-20T13:14:05.520Z,24.92
2023-03-20T13:17:00.960Z,24.75
2023-03-20T13:19:55.851Z,23.70
2023-03-20T13:22:38.430Z,24.65
2023-03-20T13:25:59.997Z,23.58
2023-03-20T13:28:36.877Z,24.52
2023-03-20T13:31:20.517Z,22.65
2023-03-20T13:34:23.191Z,22.92
2023-03-20T13:37:36.058Z,21.60
2023-03-20T13:40:22.075Z,24.35
2023-03-20T13:43:18.102Z,21.00
2023-03-20T13:45:47.718Z,22.42
2023-03-20T13:48:32.587Z,21.90
2023-03-20T13:51:21.137Z,20.38
2023-03-20T13:53:58.379Z,22.48
2023-03-20T13:56:49.028Z,20.67
2023-03-20T14:00:01.697Z,19.48
2023-03-20T14:03:16.552Z,20.30
2023-03-20T14:05:46.006Z,23.48
2023-03-20T14:08:38.464Z,21.77
2023-03-20T14:11:13.923Z,20.40
2023-03-20T14:13:56.981Z,21.95
2023-03-20T14:19:18.155Z,19.98
2023-03-20T14:21:55.118Z,22.10
2023-03-20T14:24:24.623Z,20.92
2023-03-20T14:27:01.436Z,20.75
2023-03-20T14:29:29.834Z,22.17
2023-03-20T14:32:13.587Z,22.40
2023-03-20T14:34:53.793Z,23.08
2023-03-20T14:37:37.954Z,20.95
2023-03-20T14:40:23.513Z,21.40
2023-03-20T14:42:56.991Z,22.17
2023-03-20T14:48:34.616Z,20.90
2023-03-20T14:51:19.469Z,20.67
2023-03-20T14:53:58.307Z,20.70
2023-03-20T14:56:32.966Z,19.35
2023-03-20T14:59:07.794Z,21.60
2023-03-20T15:01:39.312Z,19.98
2023-03-20T15:04:27.484Z,21.37
2023-03-20T15:07:29.177Z,20.10
2023-03-20T15:10:03.145Z,20.63
2023-03-20T15:12:35.664Z,21.75
2023-03-20T15:17:45.144Z,19.83
2023-03-20T15:20:25.912Z,20.30
2023-03-20T15:22:59.113Z,20.15
2023-03-20T15:25:46.016Z,20.85
2023-03-20T15:28:33.085Z,21.30
2023-03-20T15:31:01.961Z,19.67
2023-03-20T15:33:37.458Z,20.10
2023-03-20T15:36:20.495Z,21.15
2023-03-20T15:38:49.331Z,20.25
2023-03-20T15:41:29.344Z,19.95
2023-03-20T15:44:37.325Z,20.27
2023-03-20T15:47:11.461Z,20.13
2023-03-20T15:49:41.344Z,21.20
2023-03-20T15:52:32.141Z,20.55
2023-03-20T15:55:18.057Z,20.60
2023-03-20T15:57:47.567Z,22.63
2023-03-20T16:00:34.430Z,20.73
2023-03-20T16:03:07.370Z,21.70
2023-03-20T16:05:35.908Z,20.77
2023-03-20T16:08:15.896Z,20.48
2023-03-20T16:10:44.409Z,20.00
2023-03-20T16:13:14.646Z,19.98
2023-03-20T16:15:43.208Z,19.15
2023-03-20T16:18:15.886Z,21.50
2023-03-20T16:20:58.626Z,19.58
2023-03-20T16:23:45.489Z,20.75
2023-03-20T16:26:18.359Z,21.05
2023-03-20T16:28:51.528Z,20.15
2023-03-20T16:31:30.187Z,21.73
2023-03-20T16:34:05.932Z,22.80
2023-03-20T16:36:37.149Z,22.20
2023-03-20T16:39:15.765Z,20.00
2023-03-20T16:41:45.317Z,20.55
2023-03-20T16:44:17.686Z,23.02
2023-03-20T16:47:02.718Z,27.30
2023-03-20T16:50:03.925Z,23.65
2023-03-20T16:52:37.502Z,24.88
2023-03-20T16:55:12.054Z,24.52
2023-03-20T16:57:40.523Z,23.65
2023-03-20T17:00:22.477Z,23.80
2023-03-20T17:03:13.033Z,22.50
2023-03-20T17:06:11.112Z,22.67
2023-03-20T17:08:43.354Z,20.90
2023-03-20T17:11:39.255Z,22.52
2023-03-20T17:14:07.675Z,21.02
2023-03-20T17:16:37.712Z,20.65
2023-03-20T17:19:16.371Z,22.25
2023-03-20T17:21:46.180Z,20.77
2023-03-20T17:24:15.659Z,19.25
2023-03-20T17:26:48.398Z,20.27
2023-03-20T17:29:16.940Z,20.05
2023-03-20T17:31:46.439Z,19.17
2023-03-20T17:34:19.966Z,19.58
2023-03-20T17:36:49.294Z,18.60
2023-03-20T17:39:19.686Z,19.30
2023-03-20T17:41:48.595Z,17.48
2023-03-20T17:44:16.964Z,19.33
2023-03-20T17:46:57.860Z,17.58
2023-03-20T17:49:27.854Z,19.15
2023-03-20T17:51:56.997Z,17.20
2023-03-20T17:54:25.457Z,16.85
2023-03-20T17:56:54.629Z,17.85
2023-03-20T17:59:25.326Z,16.80
2023-03-20T18:01:54.168Z,16.98
2023-03-20T18:04:22.819Z,15.43
2023-03-20T18:06:51.681Z,16.17
2023-03-20T18:09:21.157Z,16.55
2023-03-20T18:11:49.826Z,16.10
2023-03-20T18:14:19.435Z,16.15
2023-03-20T18:16:48.307Z,16.17
2023-03-20T18:19:28.524Z,15.60
2023-03-20T18:21:57.924Z,16.05
2023-03-20T18:24:26.991Z,15.38
2023-03-20T18:26:56.304Z,14.93
2023-03-20T18:29:24.760Z,15.48
2023-03-20T18:31:53.693Z,15.73
2023-03-20T18:34:22.191Z,16.13
2023-03-20T18:36:51.349Z,14.60
2023-03-20T18:39:24.091Z,17.38
2023-03-20T18:44:21.097Z,17.58
2023-03-20T18:46:50.023Z,15.70
2023-03-20T18:49:18.927Z,16.75
2023-03-20T18:51:47.790Z,17.60
2023-03-20T18:54:16.714Z,14.93
2023-03-20T18:56:45.951Z,15.73
2023-03-20T18:59:14.565Z,17.33
2023-03-20T19:01:43.457Z,18.27
2023-03-20T19:04:11.985Z,15.65
2023-03-20T19:06:41.025Z,16.20
2023-03-20T19:09:12.178Z,16.77
2023-03-20T19:11:41.093Z,16.50
2023-03-20T19:14:09.452Z,16.65
2023-03-20T19:16:38.448Z,16.40
2023-03-20T19:19:08.138Z,16.38
2023-03-20T19:21:37.052Z,16.63
2023-03-20T19:24:06.730Z,17.38
2023-03-20T19:26:37.198Z,15.70
2023-03-20T19:29:08.767Z,16.60
2023-03-20T19:31:38.006Z,17.58
2023-03-20T19:34:06.890Z,17.63
2023-03-20T19:36:37.809Z,17.50
2023-03-20T19:39:08.394Z,17.00
2023-03-20T19:41:37.340Z,18.13
2023-03-20T19:44:06.681Z,16.60
2023-03-20T19:46:41.122Z,17.80
2023-03-20T19:49:24.986Z,17.60
2023-03-20T19:51:58.794Z,16.58
2023-03-20T19:54:29.070Z,17.58
2023-03-20T19:56:58.020Z,16.58
2023-03-20T19:59:26.568Z,18.20
2023-03-20T20:01:55.985Z,18.95
2023-03-20T20:04:24.768Z,17.23
2023-03-20T20:06:55.777Z,18.25
2023-03-20T20:09:31.567Z,18.65
2023-03-20T20:12:00.520Z,18.80
2023-03-20T20:14:29.035Z,18.65
2023-03-20T20:16:58.092Z,19.02
2023-03-20T20:19:28.468Z,17.80
2023-03-20T20:24:46.030Z,17.50
2023-03-20T20:27:17.119Z,16.73
2023-03-20T20:29:49.410Z,17.92
2023-03-20T20:32:19.919Z,16.70
2023-03-20T20:38:28.172Z,15.88
2023-03-20T20:40:32.087Z,17.08
2023-03-20T20:43:03.321Z,15.88
2023-03-20T20:45:38.284Z,16.80
2023-03-20T20:48:08.579Z,16.95
2023-03-20T20:50:37.153Z,16.45
2023-03-20T20:53:08.338Z,16.45
2023-03-20T20:55:36.990Z,17.50
2023-03-20T20:58:06.077Z,15.90
2023-03-20T21:00:49.350Z,16.80
2023-03-20T21:03:20.798Z,16.73
2023-03-20T21:05:49.391Z,16.70
2023-03-20T21:08:19.159Z,16.15
2023-03-20T21:10:47.740Z,18.10
2023-03-20T21:13:16.431Z,16.85
2023-03-20T21:15:45.996Z,17.33
2023-03-20T21:18:14.854Z,18.08
2023-03-20T21:20:43.505Z,17.77
2023-03-20T21:23:12.357Z,16.95
2023-03-20T21:25:44.263Z,16.98
2023-03-20T21:28:14.551Z,18.00
2023-03-20T21:31:04.205Z,18.65
2023-03-20T21:33:32.837Z,18.90
2023-03-20T21:36:01.370Z,18.17
2023-03-20T21:39:02.047Z,18.55
2023-03-20T21:41:19.196Z,18.85
2023-03-20T21:43:47.988Z,18.58
2023-03-20T22:01:14.491Z,17.38
2023-03-20T22:03:29.121Z,16.67
2023-03-20T22:06:59.142Z,16.70
2023-03-20T22:09:52.213Z,16.83
2023-03-20T22:12:30.459Z,17.80
2023-03-20T22:18:05.890Z,16.95
2023-03-20T22:29:32.424Z,16.08
2023-03-20T22:32:27.936Z,17.27
2023-03-20T22:35:15.184Z,18.15
2023-03-20T22:37:56.214Z,16.70
2023-03-20T22:43:48.731Z,17.00
2023-03-20T22:46:03.379Z,16.98
2023-03-20T22:48:34.336Z,16.95
2023-03-20T22:51:03.130Z,16.08
2023-03-20T22:53:32.525Z,16.10
2023-03-20T22:56:01.307Z,17.30
2023-03-20T22:58:29.792Z,23.13
2023-03-20T23:00:58.622Z,17.77
2023-03-20T23:03:40.412Z,16.83
2023-03-20T23:06:22.267Z,19.08
2023-03-20T23:08:55.390Z,22.88
2023-03-20T23:11:26.602Z,22.55
2023-03-20T23:13:55.012Z,21.48
2023-03-20T23:16:23.958Z,21.33
2023-03-20T23:18:52.405Z,21.98
2023-03-20T23:21:21.221Z,22.80
2023-03-20T23:23:49.906Z,22.63
2023-03-20T23:26:21.134Z,22.75
2023-03-20T23:28:51.692Z,21.88
2023-03-20T23:31:25.069Z,23.15
2023-03-20T23:36:42.495Z,21.33
2023-03-20T23:39:12.309Z,23.95
2023-03-20T23:44:30.440Z,23.20
2023-03-20T23:47:01.369Z,24.83
2023-03-20T23:49:31.739Z,22.23
2023-03-20T23:52:00.467Z,22.73
2023-03-20T23:54:28.793Z,24.23
2023-03-20T23:56:57.442Z,23.55
2023-03-20T23:59:25.792Z,23.83
